createdAt,value
2023-01-12T00:01:46.079Z,7.80
2023-01-12T00:04:14.669Z,7.80
2023-01-12T00:06:41.923Z,7.90
2023-01-12T00:09:09.881Z,7.90
2023-01-12T00:11:37.864Z,8.00
2023-01-12T00:14:06.418Z,8.00
2023-01-12T00:16:39.560Z,7.90
2023-01-12T00:19:12.463Z,8.00
2023-01-12T00:21:59.074Z,8.00
2023-01-12T00:24:37.050Z,8.00
2023-01-12T00:27:06.538Z,8.00
2023-01-12T00:29:33.645Z,8.10
2023-01-12T00:32:00.851Z,8.20
2023-01-12T00:34:29.653Z,8.20
2023-01-12T00:36:57.511Z,8.20
2023-01-12T00:39:24.341Z,8.20
2023-01-12T00:42:20.192Z,8.20
2023-01-12T00:45:05.483Z,8.10
2023-01-12T00:47:33.118Z,8.10
2023-01-12T00:49:59.978Z,8.00
2023-01-12T00:52:31.332Z,8.00
2023-01-12T00:54:59.802Z,8.00
2023-01-12T00:57:28.126Z,7.90
2023-01-12T00:59:56.839Z,7.90
2023-01-12T01:02:24.004Z,7.90
2023-01-12T01:04:51.213Z,7.80
2023-01-12T01:07:18.841Z,7.80
2023-01-12T01:09:45.764Z,7.70
2023-01-12T01:12:12.764Z,7.70
2023-01-12T01:14:39.668Z,7.70
2023-01-12T01:17:06.567Z,7.70
2023-01-12T01:19:33.804Z,7.60
2023-01-12T01:22:00.588Z,7.60
2023-01-12T01:24:27.975Z,7.60
2023-01-12T01:26:54.783Z,7.60
2023-01-12T01:29:21.738Z,7.60
2023-01-12T01:31:48.611Z,7.60
2023-01-12T01:34:15.516Z,7.70
2023-01-12T01:36:42.724Z,7.60
2023-01-12T01:39:09.915Z,7.70
2023-01-12T01:41:36.711Z,7.70
2023-01-12T01:44:06.258Z,7.80
2023-01-12T01:46:46.515Z,7.80
2023-01-12T01:49:22.221Z,7.80
2023-01-12T01:51:50.110Z,7.90
2023-01-12T01:54:17.002Z,7.90
2023-01-12T01:56:44.638Z,7.80
2023-01-12T01:59:20.660Z,7.80
2023-01-12T02:01:47.737Z,7.80
2023-01-12T02:04:15.910Z,7.80
2023-01-12T02:06:43.625Z,7.80
2023-01-12T02:09:16.959Z,7.80
2023-01-12T02:12:02.462Z,7.70
2023-01-12T02:14:52.216Z,7.70
2023-01-12T02:17:49.557Z,7.70
2023-01-12T02:20:30.251Z,7.80
2023-01-12T02:23:41.242Z,7.80
2023-01-12T02:27:02.274Z,7.80
2023-01-12T02:29:47.101Z,7.80
2023-01-12T02:32:26.652Z,7.80
2023-01-12T02:35:12.912Z,7.80
2023-01-12T02:37:56.545Z,7.80
2023-01-12T02:40:37.336Z,7.80
2023-01-12T02:43:20.338Z,7.90
2023-01-12T02:46:11.246Z,7.90
2023-01-12T02:48:51.420Z,7.90
2023-01-12T02:51:40.280Z,7.90
2023-01-12T02:54:20.167Z,8.00
2023-01-12T02:56:53.776Z,7.90
2023-01-12T02:59:28.188Z,8.00
2023-01-12T03:02:01.214Z,8.00
2023-01-12T03:04:30.142Z,8.10
2023-01-12T03:06:56.869Z,8.00
2023-01-12T03:09:29.055Z,8.10
2023-01-12T03:12:03.828Z,8.10
2023-01-12T03:14:34.474Z,8.10
2023-01-12T03:17:05.680Z,8.10
2023-01-12T03:19:33.427Z,8.10
2023-01-12T03:22:07.592Z,8.10
2023-01-12T03:24:48.046Z,8.20
2023-01-12T03:27:18.568Z,8.20
2023-01-12T03:29:50.798Z,8.20
2023-01-12T03:32:19.857Z,8.20
2023-01-12T03:34:47.079Z,8.30
2023-01-12T03:37:27.875Z,8.30
2023-01-12T03:40:03.612Z,8.30
2023-01-12T03:42:43.963Z,8.30
2023-01-12T03:45:25.414Z,8.30
2023-01-12T03:47:58.189Z,8.30
2023-01-12T03:50:30.719Z,8.30
2023-01-12T03:53:01.677Z,8.30
2023-01-12T03:55:30.469Z,8.20
2023-01-12T03:57:57.990Z,8.20
2023-01-12T04:00:27.147Z,8.20
2023-01-12T04:03:13.145Z,8.20
2023-01-12T04:05:42.135Z,8.20
2023-01-12T04:08:10.120Z,8.10
2023-01-12T04:10:36.942Z,8.20
2023-01-12T04:13:03.915Z,8.10
2023-01-12T04:15:30.764Z,8.20
2023-01-12T04:17:57.537Z,8.20
2023-01-12T04:20:24.342Z,8.20
2023-01-12T04:22:51.104Z,8.20
2023-01-12T04:25:20.364Z,8.20
2023-01-12T04:27:53.490Z,8.20
2023-01-12T04:30:23.607Z,8.20
2023-01-12T04:32:51.233Z,8.20
2023-01-12T04:35:18.445Z,8.20
2023-01-12T04:37:45.967Z,8.20
2023-01-12T04:40:14.481Z,8.20
2023-01-12T04:43:07.288Z,8.20
2023-01-12T04:45:40.638Z,8.20
2023-01-12T04:48:10.704Z,8.20
2023-01-12T04:50:38.966Z,8.20
2023-01-12T04:53:07.940Z,8.20
2023-01-12T04:55:38.724Z,8.10
2023-01-12T04:58:05.547Z,8.10
2023-01-12T05:00:32.536Z,8.10
2023-01-12T05:03:03.773Z,8.10
2023-01-12T05:05:32.576Z,8.10
2023-01-12T05:08:19.171Z,8.10
2023-01-12T05:10:57.253Z,8.10
2023-01-12T05:13:26.026Z,8.10
2023-01-12T05:15:52.884Z,8.10
2023-01-12T05:18:20.007Z,8.10
2023-01-12T05:20:46.885Z,8.10
2023-01-12T05:23:13.643Z,8.10
2023-01-12T05:25:40.453Z,8.10
2023-01-12T05:28:07.274Z,8.10
2023-01-12T05:30:34.139Z,8.10
2023-01-12T05:33:00.976Z,8.10
2023-01-12T05:35:27.886Z,8.10
2023-01-12T05:37:57.961Z,8.10
2023-01-12T05:40:25.227Z,8.10
2023-01-12T05:43:11.121Z,8.00
2023-01-12T05:45:38.300Z,8.10
2023-01-12T05:48:05.357Z,8.10
2023-01-12T05:50:32.619Z,8.10
2023-01-12T05:52:59.358Z,8.10
2023-01-12T05:55:26.147Z,8.10
2023-01-12T05:57:52.958Z,8.10
2023-01-12T06:00:20.122Z,8.10
2023-01-12T06:02:46.990Z,8.10
2023-01-12T06:05:13.898Z,8.10
2023-01-12T06:07:40.644Z,8.10
2023-01-12T06:10:08.259Z,8.10
2023-01-12T06:12:53.680Z,8.10
2023-01-12T06:15:20.565Z,8.10
2023-01-12T06:17:47.448Z,8.10
2023-01-12T06:20:17.106Z,8.10
2023-01-12T06:22:44.861Z,8.20
2023-01-12T06:25:12.353Z,8.20
2023-01-12T06:27:40.271Z,8.20
2023-01-12T06:30:08.311Z,8.20
2023-01-12T06:32:35.868Z,8.20
2023-01-12T06:35:14.076Z,8.10
2023-01-12T06:37:46.472Z,8.10
2023-01-12T06:40:13.681Z,8.10
2023-01-12T06:42:42.077Z,8.10
2023-01-12T06:45:10.445Z,8.10
2023-01-12T06:47:49.412Z,8.00
2023-01-12T06:50:16.835Z,8.10
2023-01-12T06:52:43.752Z,8.00
2023-01-12T06:55:10.852Z,8.00
2023-01-12T06:57:37.826Z,8.00
2023-01-12T07:00:06.386Z,8.00
2023-01-12T07:02:33.251Z,8.00
2023-01-12T07:04:59.975Z,8.00
2023-01-12T07:07:26.956Z,8.00
2023-01-12T07:09:53.678Z,8.00
2023-01-12T07:12:20.727Z,8.00
2023-01-12T07:14:47.451Z,8.00
2023-01-12T07:17:14.525Z,7.90
2023-01-12T07:19:41.716Z,8.00
2023-01-12T07:22:08.759Z,7.90
2023-01-12T07:24:35.552Z,7.90
2023-01-12T07:27:02.327Z,7.90
2023-01-12T07:29:29.102Z,8.00
2023-01-12T07:31:55.956Z,7.90
2023-01-12T07:34:22.810Z,7.90
2023-01-12T07:36:50.391Z,7.90
2023-01-12T07:39:17.792Z,7.90
2023-01-12T07:42:03.621Z,7.80
2023-01-12T07:44:30.546Z,7.80
2023-01-12T07:46:59.514Z,7.70
2023-01-12T07:49:26.962Z,7.70
2023-01-12T07:51:54.477Z,7.70
2023-01-12T07:54:21.733Z,7.70
2023-01-12T07:56:49.278Z,7.70
2023-01-12T07:59:16.191Z,7.60
2023-01-12T08:01:43.220Z,7.70
2023-01-12T08:04:10.086Z,7.60
2023-01-12T08:06:36.947Z,7.70
2023-01-12T08:09:04.362Z,7.70
2023-01-12T08:11:31.474Z,7.70
2023-01-12T08:13:58.414Z,7.70
2023-01-12T08:16:35.734Z,7.70
2023-01-12T08:19:08.126Z,7.70
2023-01-12T08:21:46.193Z,7.70
2023-01-12T08:24:21.361Z,7.70
2023-01-12T08:26:50.799Z,7.70
2023-01-12T08:29:52.603Z,7.70
2023-01-12T08:32:19.775Z,7.60
2023-01-12T08:34:53.296Z,7.60
2023-01-12T08:37:23.415Z,7.60
2023-01-12T08:39:51.782Z,7.60
2023-01-12T08:42:20.676Z,7.70
2023-01-12T08:44:48.198Z,7.70
2023-01-12T08:47:19.504Z,7.70
2023-01-12T08:49:47.262Z,7.60
2023-01-12T08:52:16.673Z,7.70
2023-01-12T08:54:44.161Z,7.80
2023-01-12T08:57:11.285Z,7.80
2023-01-12T08:59:39.165Z,7.80
2023-01-12T09:02:06.642Z,7.90
2023-01-12T09:04:33.661Z,7.90
2023-01-12T09:07:01.082Z,8.00
2023-01-12T09:09:28.273Z,8.10
2023-01-12T09:11:55.525Z,8.10
2023-01-12T09:14:22.959Z,8.10
2023-01-12T09:16:50.086Z,8.10
2023-01-12T09:19:17.163Z,8.20
2023-01-12T09:21:44.466Z,8.20
2023-01-12T09:24:12.807Z,8.30
2023-01-12T09:26:44.043Z,8.30
2023-01-12T09:29:13.034Z,8.40
2023-01-12T09:31:42.416Z,8.40
2023-01-12T09:34:10.035Z,8.40
2023-01-12T09:36:39.508Z,8.50
2023-01-12T09:39:10.429Z,8.50
2023-01-12T09:42:03.911Z,8.50
2023-01-12T09:45:01.322Z,8.50
2023-01-12T09:47:50.067Z,8.60
2023-01-12T09:50:25.892Z,8.60
2023-01-12T09:52:58.539Z,8.70
2023-01-12T09:55:28.127Z,8.70
2023-01-12T09:58:46.250Z,8.70
2023-01-12T10:01:28.176Z,8.80
2023-01-12T10:03:59.332Z,8.80
2023-01-12T10:06:26.391Z,8.90
2023-01-12T10:08:57.824Z,8.90
2023-01-12T10:11:45.771Z,9.00
2023-01-12T10:14:33.645Z,8.90
2023-01-12T10:17:24.380Z,9.00
2023-01-12T10:20:15.833Z,9.00
2023-01-12T10:22:47.610Z,9.10
2023-01-12T10:25:43.366Z,9.10
2023-01-12T10:28:32.290Z,9.10
2023-01-12T10:31:00.255Z,9.20
2023-01-12T10:33:29.874Z,9.20
2023-01-12T10:36:02.555Z,9.20
2023-01-12T10:38:53.429Z,9.30
2023-01-12T10:41:26.473Z,9.30
2023-01-12T10:43:56.631Z,9.40
2023-01-12T10:46:26.890Z,9.40
2023-01-12T10:49:13.763Z,9.40
2023-01-12T10:51:59.454Z,9.40
2023-01-12T10:54:35.396Z,9.50
2023-01-12T10:57:13.849Z,9.50
2023-01-12T10:59:42.057Z,9.60
2023-01-12T11:02:09.304Z,9.50
2023-01-12T11:04:40.863Z,9.60
2023-01-12T11:07:29.060Z,9.60
2023-01-12T11:10:16.739Z,9.60
2023-01-12T11:12:54.941Z,9.60
2023-01-12T11:15:22.062Z,9.60
2023-01-12T11:18:26.644Z,9.60
2023-01-12T11:21:13.558Z,9.60
2023-01-12T11:24:13.791Z,9.60
2023-01-12T11:26:51.524Z,9.70
2023-01-12T11:29:56.403Z,9.60
2023-01-12T11:32:32.502Z,9.70
2023-01-12T11:35:20.117Z,9.70
2023-01-12T11:37:48.647Z,9.70
2023-01-12T11:40:32.043Z,9.70
2023-01-12T11:43:37.511Z,9.80
2023-01-12T11:46:15.237Z,9.80
2023-01-12T11:49:03.790Z,9.80
2023-01-12T11:51:30.863Z,9.80
2023-01-12T11:53:58.488Z,9.80
2023-01-12T11:56:45.488Z,9.80
2023-01-12T11:59:49.490Z,9.90
2023-01-12T12:02:40.511Z,9.90
2023-01-12T12:05:35.447Z,9.90
2023-01-12T12:08:14.143Z,9.90
2023-01-12T12:10:54.226Z,9.90
2023-01-12T12:13:34.526Z,10.00
2023-01-12T12:16:25.932Z,10.00
2023-01-12T12:19:17.961Z,10.00
2023-01-12T12:21:58.019Z,10.00
2023-01-12T12:24:41.072Z,10.10
2023-01-12T12:27:26.131Z,10.00
2023-01-12T12:30:21.021Z,10.00
2023-01-12T12:33:11.184Z,10.10
2023-01-12T12:35:51.023Z,10.00
2023-01-12T12:38:55.692Z,10.10
2023-01-12T12:41:50.100Z,10.10
2023-01-12T12:44:50.941Z,10.10
2023-01-12T12:47:41.779Z,10.10
2023-01-12T12:50:28.006Z,10.10
2023-01-12T12:53:26.953Z,10.10
2023-01-12T12:55:57.240Z,10.10
2023-01-12T12:58:25.554Z,10.10
2023-01-12T13:00:55.827Z,10.10
2023-01-12T13:03:41.825Z,10.10
2023-01-12T13:06:31.708Z,10.10
2023-01-12T13:09:22.290Z,10.10
2023-01-12T13:12:00.528Z,10.10
2023-01-12T13:14:31.429Z,10.10
2023-01-12T13:17:18.494Z,10.10
2023-01-12T13:19:48.649Z,10.10
2023-01-12T13:22:18.599Z,10.10
2023-01-12T13:24:46.044Z,10.20
2023-01-12T13:27:46.816Z,10.20
2023-01-12T13:30:28.938Z,10.20
2023-01-12T13:33:15.120Z,10.20
2023-01-12T13:35:44.628Z,10.20
2023-01-12T13:38:32.566Z,10.20
2023-01-12T13:41:42.560Z,10.20
2023-01-12T13:44:16.512Z,10.20
2023-01-12T13:46:47.687Z,10.20
2023-01-12T13:49:27.487Z,10.20
2023-01-12T13:52:00.044Z,10.20
2023-01-12T13:54:27.009Z,10.20
2023-01-12T13:56:58.334Z,10.20
2023-01-12T13:59:27.140Z,10.20
2023-01-12T14:01:55.742Z,10.20
2023-01-12T14:04:49.265Z,10.20
2023-01-12T14:07:19.100Z,10.20
2023-01-12T14:09:48.914Z,10.20
2023-01-12T14:12:30.806Z,10.20
2023-01-12T14:15:32.346Z,10.20
2023-01-12T14:18:08.345Z,10.20
2023-01-12T14:20:50.380Z,10.20
2023-01-12T14:23:29.405Z,10.20
2023-01-12T14:26:14.030Z,10.20
2023-01-12T14:28:43.269Z,10.20
2023-01-12T14:31:36.946Z,10.20
2023-01-12T14:34:05.273Z,10.20
2023-01-12T14:36:44.104Z,10.20
2023-01-12T14:39:17.611Z,10.20
2023-01-12T14:42:06.841Z,10.20
2023-01-12T14:44:55.490Z,10.20
2023-01-12T14:47:35.062Z,10.20
2023-01-12T14:50:16.519Z,10.20
2023-01-12T14:52:45.781Z,10.20
2023-01-12T14:55:18.494Z,10.20
2023-01-12T14:57:53.831Z,10.20
2023-01-12T15:00:25.141Z,10.20
2023-01-12T15:02:54.385Z,10.20
2023-01-12T15:05:27.397Z,10.20
2023-01-12T15:07:56.130Z,10.20
2023-01-12T15:10:29.291Z,10.30
2023-01-12T15:12:59.821Z,10.20
2023-01-12T15:15:49.543Z,10.20
2023-01-12T15:18:35.553Z,10.30
2023-01-12T15:21:22.848Z,10.20
2023-01-12T15:24:08.417Z,10.20
2023-01-12T15:26:35.309Z,10.30
2023-01-12T15:29:03.120Z,10.20
2023-01-12T15:31:34.458Z,10.20
2023-01-12T15:34:01.892Z,10.30
2023-01-12T15:36:29.380Z,10.20
2023-01-12T15:38:56.451Z,10.20
2023-01-12T15:41:48.204Z,10.30
2023-01-12T15:44:20.029Z,10.20
2023-01-12T15:46:47.634Z,10.20
2023-01-12T15:49:15.542Z,10.20
2023-01-12T15:51:46.931Z,10.10
2023-01-12T15:54:14.930Z,10.20
2023-01-12T15:56:41.703Z,10.10
2023-01-12T15:59:08.537Z,10.20
2023-01-12T16:01:42.792Z,10.10
2023-01-12T16:04:41.458Z,10.10
2023-01-12T16:07:04.458Z,10.20
2023-01-12T16:09:31.320Z,10.10
2023-01-12T16:11:58.187Z,10.20
2023-01-12T16:14:25.080Z,10.10
2023-01-12T16:16:52.087Z,10.10
2023-01-12T16:19:22.519Z,10.10
2023-01-12T16:21:49.574Z,10.10
2023-01-12T16:24:16.542Z,10.10
2023-01-12T16:26:43.909Z,10.10
2023-01-12T16:29:10.752Z,10.10
2023-01-12T16:31:39.358Z,10.10
2023-01-12T16:34:06.757Z,10.00
2023-01-12T16:36:33.813Z,10.00
2023-01-12T16:39:00.718Z,10.10
2023-01-12T16:41:27.961Z,10.00
2023-01-12T16:43:58.343Z,10.10
2023-01-12T16:46:25.259Z,10.00
2023-01-12T16:48:55.255Z,10.10
2023-01-12T16:51:22.371Z,10.10
2023-01-12T16:53:49.479Z,10.00
2023-01-12T16:56:16.852Z,10.10
2023-01-12T16:58:48.619Z,10.10
2023-01-12T17:01:19.233Z,10.10
2023-01-12T17:03:47.058Z,10.10
2023-01-12T17:06:17.630Z,10.10
2023-01-12T17:08:44.606Z,10.10
2023-01-12T17:11:14.551Z,10.00
2023-01-12T17:13:42.107Z,10.10
2023-01-12T17:16:11.288Z,10.10
2023-01-12T17:18:39.545Z,10.10
2023-01-12T17:21:13.450Z,10.00
2023-01-12T17:23:41.663Z,10.00
2023-01-12T17:26:14.002Z,10.10
2023-01-12T17:28:41.370Z,10.10
2023-01-12T17:31:15.579Z,10.10
2023-01-12T17:33:43.297Z,10.00
2023-01-12T17:36:11.856Z,10.10
2023-01-12T17:38:39.835Z,10.00
2023-01-12T17:41:09.102Z,10.10
2023-01-12T17:43:37.271Z,10.10
2023-01-12T17:46:04.476Z,10.10
2023-01-12T17:48:31.651Z,10.10
2023-01-12T17:50:58.522Z,10.00
2023-01-12T17:53:25.439Z,10.00
2023-01-12T17:55:53.211Z,10.10
2023-01-12T17:58:20.411Z,10.10
2023-01-12T18:00:47.434Z,10.00
2023-01-12T18:03:14.389Z,10.10
2023-01-12T18:05:44.544Z,10.00
2023-01-12T18:08:12.393Z,10.10
2023-01-12T18:10:39.643Z,10.00
2023-01-12T18:13:06.837Z,10.10
2023-01-12T18:15:33.775Z,10.10
2023-01-12T18:18:00.653Z,10.10
2023-01-12T18:20:27.951Z,10.10
2023-01-12T18:22:55.291Z,10.10
2023-01-12T18:25:22.071Z,10.00
2023-01-12T18:27:49.050Z,10.10
2023-01-12T18:30:16.160Z,10.10
2023-01-12T18:32:43.014Z,10.10
2023-01-12T18:35:10.739Z,10.10
2023-01-12T18:37:38.828Z,10.10
2023-01-12T18:40:06.439Z,10.10
2023-01-12T18:42:51.426Z,10.10
2023-01-12T18:45:18.913Z,10.10
2023-01-12T18:48:04.588Z,10.10
2023-01-12T18:50:51.297Z,10.10
2023-01-12T18:53:24.964Z,10.10
2023-01-12T18:55:59.295Z,10.10
2023-01-12T18:58:29.266Z,10.10
2023-01-12T19:01:06.785Z,10.10
2023-01-12T19:03:35.831Z,10.10
2023-01-12T19:06:28.497Z,10.10
2023-01-12T19:09:14.171Z,10.00
2023-01-12T19:11:41.391Z,10.10
2023-01-12T19:14:27.876Z,10.10
2023-01-12T19:17:13.132Z,10.10
2023-01-12T19:19:40.072Z,10.10
2023-01-12T19:22:25.331Z,10.10
2023-01-12T19:25:10.879Z,10.10
2023-01-12T19:27:56.015Z,10.10
2023-01-12T19:30:23.381Z,10.10
2023-01-12T19:32:50.352Z,10.10
2023-01-12T19:35:17.506Z,10.10
2023-01-12T19:37:49.295Z,10.10
2023-01-12T19:40:33.251Z,10.10
2023-01-12T19:43:33.146Z,10.00
2023-01-12T19:46:02.777Z,10.10
2023-01-12T19:48:30.497Z,10.10
2023-01-12T19:51:05.852Z,10.10
2023-01-12T19:53:32.993Z,10.10
2023-01-12T19:56:00.413Z,10.10
2023-01-12T19:58:28.224Z,10.10
2023-01-12T20:00:56.032Z,10.10
2023-01-12T20:03:24.467Z,10.10
2023-01-12T20:05:52.151Z,10.10
2023-01-12T20:08:24.486Z,10.10
2023-01-12T20:10:59.413Z,10.10
2023-01-12T20:13:26.563Z,10.10
2023-01-12T20:15:56.329Z,10.10
2023-01-12T20:18:23.475Z,10.10
2023-01-12T20:20:50.612Z,10.10
2023-01-12T20:23:18.232Z,10.10
2023-01-12T20:25:45.086Z,10.10
2023-01-12T20:28:13.438Z,10.10
2023-01-12T20:30:43.610Z,10.10
2023-01-12T20:33:11.951Z,10.10
2023-01-12T20:35:43.612Z,10.10
2023-01-12T20:38:15.673Z,10.10
2023-01-12T20:40:44.886Z,10.10
2023-01-12T20:43:11.937Z,10.10
2023-01-12T20:45:41.580Z,10.10
2023-01-12T20:48:08.692Z,10.10
2023-01-12T20:50:35.960Z,10.10
2023-01-12T20:53:03.415Z,10.10
2023-01-12T20:55:30.492Z,10.10
2023-01-12T20:57:57.401Z,10.10
2023-01-12T21:00:24.350Z,10.10
2023-01-12T21:02:51.155Z,10.10
2023-01-12T21:05:18.213Z,10.10
2023-01-12T21:07:45.345Z,10.10
2023-01-12T21:10:12.582Z,10.10
2023-01-12T21:12:39.576Z,10.10
2023-01-12T21:15:07.330Z,10.10
2023-01-12T21:17:39.690Z,10.10
2023-01-12T21:20:08.534Z,10.10
2023-01-12T21:22:35.333Z,10.20
2023-01-12T21:25:02.516Z,10.10
2023-01-12T21:27:29.406Z,10.20
2023-01-12T21:29:57.167Z,10.20
2023-01-12T21:32:27.079Z,10.20
2023-01-12T21:34:54.067Z,10.20
2023-01-12T21:37:21.049Z,10.20
2023-01-12T21:39:47.895Z,10.20
2023-01-12T21:42:33.711Z,10.20
2023-01-12T21:45:00.648Z,10.20
2023-01-12T21:47:27.889Z,10.20
2023-01-12T21:49:56.306Z,10.20
2023-01-12T21:52:23.221Z,10.20
2023-01-12T21:54:56.473Z,10.20
2023-01-12T21:57:23.881Z,10.20
2023-01-12T21:59:50.799Z,10.20
2023-01-12T22:02:17.818Z,10.20
2023-01-12T22:04:44.669Z,10.20
2023-01-12T22:07:11.492Z,10.20
2023-01-12T22:09:38.383Z,10.10
2023-01-12T22:12:05.796Z,10.10
2023-01-12T22:14:32.647Z,10.10
2023-01-12T22:16:59.525Z,10.10
2023-01-12T22:19:26.239Z,10.20
2023-01-12T22:21:53.134Z,10.20
2023-01-12T22:24:20.400Z,10.10
2023-01-12T22:26:47.464Z,10.10
2023-01-12T22:29:14.235Z,10.10
2023-01-12T22:31:41.055Z,10.10
2023-01-12T22:34:08.339Z,10.10
2023-01-12T22:36:43.803Z,10.10
2023-01-12T22:39:14.973Z,10.00
2023-01-12T22:41:41.921Z,10.00
2023-01-12T22:44:08.804Z,10.10
2023-01-12T22:46:36.887Z,10.00
2023-01-12T22:49:04.674Z,10.00
2023-01-12T22:51:31.769Z,10.00
2023-01-12T22:53:58.800Z,10.10
2023-01-12T22:56:25.815Z,10.00
2023-01-12T22:58:54.404Z,10.10
2023-01-12T23:01:23.179Z,10.00
2023-01-12T23:03:54.478Z,10.10
2023-01-12T23:06:22.678Z,10.00
2023-01-12T23:08:50.417Z,10.10
2023-01-12T23:11:20.450Z,10.00
2023-01-12T23:13:47.697Z,10.00
2023-01-12T23:16:17.344Z,10.00
2023-01-12T23:18:45.652Z,10.00
2023-01-12T23:21:15.678Z,10.10
2023-01-12T23:23:47.748Z,10.00
2023-01-12T23:26:17.380Z,10.00
2023-01-12T23:28:54.089Z,10.00
2023-01-12T23:31:22.759Z,10.00
2023-01-12T23:33:50.820Z,10.00
2023-01-12T23:36:23.465Z,10.00
2023-01-12T23:38:58.665Z,10.00
2023-01-12T23:41:27.660Z,10.00
2023-01-12T23:43:57.807Z,10.00
2023-01-12T23:46:25.022Z,10.00
2023-01-12T23:48:54.198Z,10.00
2023-01-12T23:51:22.443Z,10.00
2023-01-12T23:53:52.087Z,10.00
2023-01-12T23:56:19.674Z,10.00
2023-01-12T23:58:47.824Z,10.00
